^^
Saratoga-Weather Station Historical Data
Daily Summary for June 25, 2020 Units:  Metric    English   Both
Daily Weekly Monthly Yearly Custom
  High: Low: Average:
Temperature: 2.2 °C -0.2 °C 1 °C
Dew Point: 1.9 °C -0.6 °C 0.7 °C
Humidity: 98% 97% 98%
Wind Speed: 0km/h km/h 0km/h
Wind Gust: 1.6km/h - -
Wind- -
Pressure: 1023.4 hPa 1019.6 hPa -
Precipitation: 0.0 mm    
Historical Graphs
 
 
Tabular Data for June 25, 2020
Time Temperature Dew Point Pressure Wind Wind Speed Wind Gust Humidity Rainfall Rate (Hourly) solar
00:03 0.4 °C 0 °C 1023.0 hPa Calm     97% 0.0 mm 0 W/m2
00:08 0.4 °C 0 °C 1023.0 hPa Calm     97% 0.0 mm 0 W/m2
00:13 0.4 °C 0 °C 1023.0 hPa Calm     97% 0.0 mm 0 W/m2
00:18 0.4 °C 0 °C 1023.0 hPa Calm     97% 0.0 mm 0 W/m2
00:23 0.4 °C 0 °C 1023.0 hPa Calm     97% 0.0 mm 0 W/m2
00:28 0.4 °C 0 °C 1023.0 hPa Calm     97% 0.0 mm 0 W/m2
00:33 0.4 °C 0 °C 1023.0 hPa Calm     97% 0.0 mm 0 W/m2
00:38 0.4 °C 0 °C 1022.7 hPa Calm     97% 0.0 mm 0 W/m2
00:43 0.4 °C 0 °C 1023.0 hPa Calm     97% 0.0 mm 0 W/m2
00:48 0.4 °C 0 °C 1022.7 hPa Calm     97% 0.0 mm 0 W/m2
00:53 0.4 °C 0 °C 1022.7 hPa Calm     97% 0.0 mm 0 W/m2
00:58 0.4 °C 0 °C 1022.7 hPa Calm     97% 0.0 mm 0 W/m2
01:03 0.3 °C -0.1 °C 1022.7 hPa Calm     97% 0.0 mm 0 W/m2
01:08 0.3 °C -0.1 °C 1022.7 hPa Calm     97% 0.0 mm 0 W/m2
01:13 0.3 °C -0.1 °C 1022.7 hPa Calm     97% 0.0 mm 0 W/m2
01:18 0.3 °C -0.1 °C 1022.4 hPa Calm     97% 0.0 mm 0 W/m2
01:23 0.3 °C -0.1 °C 1022.4 hPa Calm     97% 0.0 mm 0 W/m2
01:28 0.2 °C -0.2 °C 1022.7 hPa Calm     97% 0.0 mm 0 W/m2
01:33 0.2 °C -0.2 °C 1022.7 hPa Calm     97% 0.0 mm 0 W/m2
01:38 0.2 °C -0.2 °C 1022.7 hPa Calm     97% 0.0 mm 0 W/m2
01:43 0.2 °C -0.2 °C 1022.7 hPa Calm     97% 0.0 mm 0 W/m2
01:48 0.2 °C -0.2 °C 1022.7 hPa Calm     97% 0.0 mm 0 W/m2
01:53 0.2 °C -0.2 °C 1022.7 hPa Calm     97% 0.0 mm 0 W/m2
01:58 0.2 °C -0.2 °C 1022.7 hPa Calm     97% 0.0 mm 0 W/m2
02:04 0.2 °C -0.2 °C 1022.7 hPa Calm     97% 0.0 mm 0 W/m2
02:09 0.2 °C -0.2 °C 1022.4 hPa Calm     97% 0.0 mm 0 W/m2
02:14 0.2 °C -0.2 °C 1022.7 hPa Calm     97% 0.0 mm 0 W/m2
02:19 0.3 °C -0.1 °C 1022.7 hPa Calm     97% 0.0 mm 0 W/m2
02:24 0.3 °C -0.1 °C 1022.7 hPa Calm     97% 0.0 mm 0 W/m2
02:29 0.3 °C -0.1 °C 1022.7 hPa Calm     97% 0.0 mm 0 W/m2
02:34 0.4 °C 0 °C 1022.7 hPa Calm     97% 0.0 mm 0 W/m2
02:39 0.4 °C 0 °C 1022.7 hPa Calm     97% 0.0 mm 0 W/m2
02:44 0.4 °C 0 °C 1022.7 hPa Calm     97% 0.0 mm 0 W/m2
02:49 0.4 °C 0 °C 1022.7 hPa Calm     97% 0.0 mm 0 W/m2
02:54 0.4 °C 0 °C 1022.7 hPa Calm     97% 0.0 mm 0 W/m2
02:59 0.4 °C 0 °C 1022.7 hPa Calm     97% 0.0 mm 0 W/m2
03:04 0.4 °C 0 °C 1022.7 hPa Calm     97% 0.0 mm 0 W/m2
03:09 0.4 °C 0 °C 1022.7 hPa Calm     97% 0.0 mm 0 W/m2
03:14 0.4 °C 0 °C 1022.7 hPa Calm   1.6 km/h 97% 0.0 mm 0 W/m2
03:19 0.4 °C 0 °C 1022.7 hPa Calm     97% 0.0 mm 0 W/m2
03:24 0.3 °C -0.1 °C 1022.7 hPa Calm     97% 0.0 mm 0 W/m2
03:29 0.3 °C -0.1 °C 1022.7 hPa Calm     97% 0.0 mm 0 W/m2
03:34 0.3 °C -0.1 °C 1022.7 hPa Calm     97% 0.0 mm 0 W/m2
03:39 0.2 °C -0.2 °C 1022.7 hPa Calm     97% 0.0 mm 0 W/m2
03:44 0.2 °C -0.2 °C 1022.7 hPa Calm     97% 0.0 mm 0 W/m2
03:49 0.2 °C -0.2 °C 1022.7 hPa Calm     97% 0.0 mm 0 W/m2
03:54 0.1 °C -0.3 °C 1022.4 hPa Calm     97% 0.0 mm 0 W/m2
03:59 0.1 °C -0.3 °C 1022.4 hPa Calm     97% 0.0 mm 0 W/m2
04:04 0.1 °C -0.3 °C 1022.4 hPa Calm     97% 0.0 mm 0 W/m2
04:09 0 °C -0.4 °C 1022.4 hPa Calm     97% 0.0 mm 0 W/m2
04:14 0 °C -0.4 °C 1022.4 hPa Calm     97% 0.0 mm 0 W/m2
04:19 0.1 °C -0.3 °C 1022.4 hPa Calm     97% 0.0 mm 0 W/m2
04:24 0.1 °C -0.3 °C 1022.4 hPa Calm     97% 0.0 mm 0 W/m2
04:29 0.1 °C -0.3 °C 1022.4 hPa Calm     97% 0.0 mm 0 W/m2
04:34 0.1 °C -0.3 °C 1022.4 hPa Calm     97% 0.0 mm 0 W/m2
04:39 0.1 °C -0.3 °C 1022.0 hPa Calm     97% 0.0 mm 0 W/m2
04:44 0.1 °C -0.3 °C 1022.0 hPa Calm     97% 0.0 mm 0 W/m2
04:49 0.1 °C -0.3 °C 1022.0 hPa Calm     97% 0.0 mm 0 W/m2
04:54 0.1 °C -0.3 °C 1022.0 hPa Calm     97% 0.0 mm 0 W/m2
04:59 0.1 °C -0.3 °C 1022.0 hPa Calm     97% 0.0 mm 0 W/m2
05:04 0.1 °C -0.3 °C 1022.0 hPa Calm     97% 0.0 mm 0 W/m2
05:09 0 °C -0.4 °C 1022.0 hPa Calm     97% 0.0 mm 0 W/m2
05:14 0 °C -0.4 °C 1022.0 hPa Calm     97% 0.0 mm 0 W/m2
05:19 0 °C -0.4 °C 1022.0 hPa Calm     97% 0.0 mm 0 W/m2
05:24 0 °C -0.4 °C 1022.0 hPa Calm     97% 0.0 mm 0 W/m2
05:29 0 °C -0.4 °C 1022.0 hPa Calm     97% 0.0 mm 0 W/m2
05:35 0 °C -0.4 °C 1022.0 hPa Calm     97% 0.0 mm 0 W/m2
05:40 0 °C -0.4 °C 1022.0 hPa Calm     97% 0.0 mm 0 W/m2
05:45 0 °C -0.4 °C 1022.0 hPa Calm     97% 0.0 mm 0 W/m2
05:50 0 °C -0.4 °C 1022.0 hPa Calm     97% 0.0 mm 0 W/m2
05:55 0 °C -0.4 °C 1022.0 hPa Calm     97% 0.0 mm 0 W/m2
06:00 0 °C -0.4 °C 1022.0 hPa Calm     97% 0.0 mm 0 W/m2
06:05 -0.1 °C -0.5 °C 1022.4 hPa Calm     97% 0.0 mm 0 W/m2
06:10 -0.1 °C -0.5 °C 1022.0 hPa Calm     97% 0.0 mm 0 W/m2
06:15 -0.1 °C -0.5 °C 1022.0 hPa Calm     97% 0.0 mm 0 W/m2
06:20 -0.1 °C -0.5 °C 1022.4 hPa Calm     97% 0.0 mm 0 W/m2
06:25 -0.1 °C -0.5 °C 1022.0 hPa Calm     97% 0.0 mm 0 W/m2
06:30 -0.1 °C -0.5 °C 1022.0 hPa Calm     97% 0.0 mm 0 W/m2
06:35 -0.1 °C -0.5 °C 1022.4 hPa Calm     97% 0.0 mm 0 W/m2
06:40 -0.1 °C -0.5 °C 1022.4 hPa Calm     97% 0.0 mm 0 W/m2
06:45 -0.1 °C -0.5 °C 1022.4 hPa Calm     97% 0.0 mm 0 W/m2
06:50 -0.2 °C -0.6 °C 1022.4 hPa Calm     97% 0.0 mm 0 W/m2
06:55 -0.2 °C -0.6 °C 1022.4 hPa Calm     97% 0.0 mm 0 W/m2
07:00 -0.2 °C -0.6 °C 1022.4 hPa Calm     97% 0.0 mm 0 W/m2
07:05 -0.1 °C -0.5 °C 1022.4 hPa Calm     97% 0.0 mm 0 W/m2
07:10 -0.1 °C -0.5 °C 1022.4 hPa Calm     97% 0.0 mm 0 W/m2
07:15 -0.1 °C -0.5 °C 1022.4 hPa Calm     97% 0.0 mm 0 W/m2
07:20 -0.1 °C -0.5 °C 1022.0 hPa Calm     97% 0.0 mm 0 W/m2
07:25 -0.1 °C -0.5 °C 1022.0 hPa Calm     97% 0.0 mm 0 W/m2
07:30 -0.1 °C -0.5 °C 1022.0 hPa Calm     97% 0.0 mm 0 W/m2
07:35 0 °C -0.4 °C 1022.0 hPa Calm     97% 0.0 mm 0 W/m2
07:40 0 °C -0.4 °C 1022.0 hPa Calm     97% 0.0 mm 0 W/m2
07:45 0 °C -0.4 °C 1022.4 hPa Calm     97% 0.0 mm 0 W/m2
07:50 0.1 °C -0.3 °C 1022.4 hPa Calm     97% 0.0 mm 0 W/m2
07:55 0.1 °C -0.3 °C 1022.4 hPa Calm     97% 0.0 mm 0 W/m2
08:00 0.1 °C -0.2 °C 1022.4 hPa Calm     98% 0.0 mm 0 W/m2
08:05 0.1 °C -0.3 °C 1022.4 hPa Calm     97% 0.0 mm 0 W/m2
08:10 0.1 °C -0.3 °C 1022.4 hPa Calm     97% 0.0 mm 0 W/m2
08:15 0.1 °C -0.3 °C 1022.4 hPa Calm     97% 0.0 mm 0 W/m2
08:20 0.1 °C -0.3 °C 1022.4 hPa Calm     97% 0.0 mm 0 W/m2
08:25 0.1 °C -0.3 °C 1022.4 hPa Calm     97% 0.0 mm 0 W/m2
08:30 0.1 °C -0.3 °C 1022.4 hPa Calm     97% 0.0 mm 0 W/m2
08:35 0.1 °C -0.3 °C 1022.7 hPa Calm     97% 0.0 mm 0 W/m2
08:40 0.1 °C -0.3 °C 1022.7 hPa Calm     97% 0.0 mm 5 W/m2
08:45 0.1 °C -0.3 °C 1022.7 hPa Calm     97% 0.0 mm 7 W/m2
08:50 0.1 °C -0.3 °C 1022.7 hPa Calm     97% 0.0 mm 7 W/m2
08:55 0.1 °C -0.3 °C 1022.7 hPa Calm     97% 0.0 mm 11 W/m2
09:00 0.1 °C -0.3 °C 1022.7 hPa Calm     97% 0.0 mm 12 W/m2
09:05 0 °C -0.3 °C 1022.7 hPa Calm     98% 0.0 mm 16 W/m2
09:10 0 °C -0.3 °C 1022.7 hPa Calm     98% 0.0 mm 18 W/m2
09:15 0.1 °C -0.2 °C 1023.0 hPa Calm     98% 0.0 mm 19 W/m2
09:20 0.1 °C -0.2 °C 1023.0 hPa Calm     98% 0.0 mm 19 W/m2
09:25 0.1 °C -0.2 °C 1023.0 hPa Calm     98% 0.0 mm 23 W/m2
09:30 0 °C -0.3 °C 1023.0 hPa Calm     98% 0.0 mm 25 W/m2
09:35 -0.1 °C -0.4 °C 1023.0 hPa Calm     98% 0.0 mm 28 W/m2
09:41 -0.1 °C -0.4 °C 1023.0 hPa Calm     98% 0.0 mm 30 W/m2
09:46 0 °C -0.3 °C 1023.0 hPa Calm     98% 0.0 mm 33 W/m2
09:51 0 °C -0.3 °C 1023.0 hPa Calm     98% 0.0 mm 35 W/m2
09:56 0.1 °C -0.2 °C 1023.0 hPa Calm     98% 0.0 mm 42 W/m2
10:01 0.2 °C -0.2 °C 1023.0 hPa Calm     97% 0.0 mm 42 W/m2
10:06 0.2 °C -0.1 °C 1023.0 hPa Calm     98% 0.0 mm 32 W/m2
10:11 0.3 °C 0 °C 1023.0 hPa Calm     98% 0.0 mm 33 W/m2
10:16 0.3 °C 0 °C 1023.0 hPa Calm     98% 0.0 mm 35 W/m2
10:21 0.4 °C 0.1 °C 1023.4 hPa Calm     98% 0.0 mm 37 W/m2
10:26 0.4 °C 0.1 °C 1023.4 hPa Calm     98% 0.0 mm 40 W/m2
10:31 0.6 °C 0.3 °C 1023.0 hPa Calm     98% 0.0 mm 42 W/m2
10:36 0.6 °C 0.3 °C 1023.4 hPa Calm     98% 0.0 mm 37 W/m2
10:41 0.7 °C 0.4 °C 1023.4 hPa Calm     98% 0.0 mm 37 W/m2
10:46 0.7 °C 0.4 °C 1023.4 hPa Calm     98% 0.0 mm 40 W/m2
10:51 0.7 °C 0.4 °C 1023.4 hPa Calm     98% 0.0 mm 46 W/m2
10:56 0.7 °C 0.4 °C 1023.4 hPa Calm     98% 0.0 mm 51 W/m2
11:01 0.8 °C 0.5 °C 1023.4 hPa Calm     98% 0.0 mm 58 W/m2
11:06 0.8 °C 0.5 °C 1023.4 hPa Calm     98% 0.0 mm 72 W/m2
11:11 0.8 °C 0.5 °C 1023.4 hPa Calm     98% 0.0 mm 79 W/m2
11:17 0.9 °C 0.6 °C 1023.4 hPa Calm     98% 0.0 mm 83 W/m2
11:22 1 °C 0.7 °C 1023.4 hPa Calm     98% 0.0 mm 81 W/m2
11:27 1.1 °C 0.8 °C 1023.0 hPa Calm     98% 0.0 mm 81 W/m2
11:32 1.2 °C 0.9 °C 1023.4 hPa Calm     98% 0.0 mm 77 W/m2
11:37 1.2 °C 0.9 °C 1023.4 hPa Calm     98% 0.0 mm 79 W/m2
11:42 1.2 °C 0.9 °C 1023.4 hPa Calm     98% 0.0 mm 62 W/m2
11:47 1.2 °C 0.9 °C 1023.4 hPa Calm     98% 0.0 mm 56 W/m2
11:52 1.2 °C 0.9 °C 1023.4 hPa Calm     98% 0.0 mm 54 W/m2
11:57 1.2 °C 0.9 °C 1023.0 hPa Calm     98% 0.0 mm 60 W/m2
12:02 1.2 °C 0.9 °C 1023.0 hPa Calm     98% 0.0 mm 58 W/m2
12:07 1.2 °C 0.9 °C 1023.0 hPa Calm     98% 0.0 mm 60 W/m2
12:12 1.2 °C 0.9 °C 1023.0 hPa Calm     98% 0.0 mm 83 W/m2
12:17 1.2 °C 0.9 °C 1023.0 hPa Calm     98% 0.0 mm 70 W/m2
12:22 1.2 °C 0.9 °C 1023.0 hPa Calm     98% 0.0 mm 84 W/m2
12:27 1.2 °C 0.9 °C 1022.7 hPa Calm     98% 0.0 mm 90 W/m2
12:32 1.2 °C 0.9 °C 1022.7 hPa Calm     98% 0.0 mm 79 W/m2
12:37 1.3 °C 1 °C 1022.7 hPa Calm     98% 0.0 mm 83 W/m2
12:42 1.3 °C 1 °C 1022.7 hPa Calm     98% 0.0 mm 79 W/m2
12:47 1.3 °C 1 °C 1022.4 hPa Calm     98% 0.0 mm 84 W/m2
12:52 1.3 °C 1 °C 1022.4 hPa Calm     98% 0.0 mm 76 W/m2
12:57 1.3 °C 1 °C 1022.4 hPa Calm     98% 0.0 mm 77 W/m2
13:02 1.4 °C 1.1 °C 1022.4 hPa Calm     98% 0.0 mm 72 W/m2
13:07 1.4 °C 1.1 °C 1022.4 hPa Calm     98% 0.0 mm 51 W/m2
13:12 1.3 °C 1 °C 1022.4 hPa Calm   1.6 km/h 98% 0.0 mm 49 W/m2
13:17 1.3 °C 1 °C 1022.4 hPa Calm     98% 0.0 mm 65 W/m2
13:22 1.3 °C 1 °C 1022.4 hPa Calm     98% 0.0 mm 67 W/m2
13:27 1.3 °C 1 °C 1022.4 hPa Calm     98% 0.0 mm 77 W/m2
13:32 1.4 °C 1.1 °C 1022.0 hPa Calm     98% 0.0 mm 86 W/m2
13:37 1.4 °C 1.1 °C 1022.0 hPa Calm     98% 0.0 mm 79 W/m2
13:42 1.5 °C 1.2 °C 1022.0 hPa Calm     98% 0.0 mm 90 W/m2
13:47 1.6 °C 1.3 °C 1022.0 hPa Calm     98% 0.0 mm 81 W/m2
13:52 1.7 °C 1.4 °C 1022.0 hPa Calm     98% 0.0 mm 91 W/m2
13:57 1.7 °C 1.4 °C 1021.7 hPa Calm     98% 0.0 mm 79 W/m2
14:02 1.7 °C 1.4 °C 1021.7 hPa Calm     98% 0.0 mm 76 W/m2
14:07 1.8 °C 1.5 °C 1021.7 hPa Calm     98% 0.0 mm 67 W/m2
14:12 1.8 °C 1.5 °C 1021.7 hPa Calm     98% 0.0 mm 54 W/m2
14:17 1.8 °C 1.5 °C 1021.7 hPa Calm     98% 0.0 mm 49 W/m2
14:22 1.8 °C 1.5 °C 1021.3 hPa Calm     98% 0.0 mm 69 W/m2
14:27 1.8 °C 1.5 °C 1021.3 hPa Calm     98% 0.0 mm 67 W/m2
14:32 1.8 °C 1.5 °C 1021.3 hPa Calm     98% 0.0 mm 58 W/m2
14:37 1.8 °C 1.5 °C 1021.3 hPa Calm     98% 0.0 mm 56 W/m2
14:42 1.8 °C 1.5 °C 1021.3 hPa Calm     98% 0.0 mm 62 W/m2
14:47 1.8 °C 1.5 °C 1021.3 hPa Calm     98% 0.0 mm 56 W/m2
14:52 1.8 °C 1.5 °C 1021.3 hPa Calm     98% 0.0 mm 58 W/m2
14:57 1.9 °C 1.6 °C 1021.3 hPa Calm     98% 0.0 mm 62 W/m2
15:02 1.9 °C 1.6 °C 1021.3 hPa Calm     98% 0.0 mm 60 W/m2
15:07 1.9 °C 1.6 °C 1021.3 hPa Calm     98% 0.0 mm 54 W/m2
15:12 1.9 °C 1.6 °C 1021.3 hPa Calm     98% 0.0 mm 49 W/m2
15:17 2 °C 1.7 °C 1021.3 hPa Calm     98% 0.0 mm 46 W/m2
15:22 1.9 °C 1.6 °C 1021.3 hPa Calm     98% 0.0 mm 46 W/m2
15:27 2 °C 1.7 °C 1021.0 hPa Calm     98% 0.0 mm 39 W/m2
15:32 1.9 °C 1.6 °C 1021.3 hPa Calm     98% 0.0 mm 37 W/m2
15:37 1.9 °C 1.6 °C 1021.3 hPa Calm     98% 0.0 mm 37 W/m2
15:42 1.9 °C 1.6 °C 1021.3 hPa Calm     98% 0.0 mm 33 W/m2
15:47 1.9 °C 1.6 °C 1021.0 hPa Calm     98% 0.0 mm 32 W/m2
15:52 1.9 °C 1.6 °C 1021.0 hPa Calm     98% 0.0 mm 30 W/m2
15:57 1.9 °C 1.6 °C 1021.0 hPa Calm     98% 0.0 mm 28 W/m2
16:02 1.9 °C 1.6 °C 1021.0 hPa Calm     98% 0.0 mm 25 W/m2
16:07 1.9 °C 1.6 °C 1021.0 hPa Calm     98% 0.0 mm 25 W/m2
16:12 1.9 °C 1.6 °C 1021.0 hPa Calm     98% 0.0 mm 21 W/m2
16:17 1.9 °C 1.6 °C 1021.0 hPa Calm     98% 0.0 mm 21 W/m2
16:22 1.9 °C 1.6 °C 1021.0 hPa Calm     98% 0.0 mm 18 W/m2
16:27 1.9 °C 1.6 °C 1021.0 hPa Calm     98% 0.0 mm 16 W/m2
16:32 1.9 °C 1.6 °C 1020.7 hPa Calm     98% 0.0 mm 16 W/m2
16:37 1.9 °C 1.6 °C 1021.0 hPa Calm     98% 0.0 mm 12 W/m2
16:42 1.9 °C 1.6 °C 1020.7 hPa Calm     98% 0.0 mm 11 W/m2
16:47 1.9 °C 1.6 °C 1020.7 hPa Calm     98% 0.0 mm 9 W/m2
16:52 1.9 °C 1.6 °C 1020.7 hPa Calm     98% 0.0 mm 7 W/m2
16:57 1.9 °C 1.6 °C 1020.7 hPa Calm     98% 0.0 mm 5 W/m2
17:02 1.9 °C 1.6 °C 1020.7 hPa Calm     98% 0.0 mm 5 W/m2
17:07 1.9 °C 1.6 °C 1020.7 hPa Calm     98% 0.0 mm 0 W/m2
17:12 1.9 °C 1.6 °C 1021.0 hPa Calm     98% 0.0 mm 0 W/m2
17:17 1.9 °C 1.6 °C 1021.0 hPa Calm     98% 0.0 mm 0 W/m2
17:22 1.9 °C 1.6 °C 1020.7 hPa Calm     98% 0.0 mm 0 W/m2
17:27 1.9 °C 1.6 °C 1021.0 hPa Calm     98% 0.0 mm 0 W/m2
17:32 1.9 °C 1.6 °C 1021.0 hPa Calm     98% 0.0 mm 0 W/m2
17:37 1.9 °C 1.6 °C 1021.0 hPa Calm     98% 0.0 mm 0 W/m2
17:42 2 °C 1.7 °C 1021.0 hPa Calm     98% 0.0 mm 0 W/m2
17:47 2 °C 1.7 °C 1021.0 hPa Calm     98% 0.0 mm 0 W/m2
17:52 2 °C 1.7 °C 1020.7 hPa Calm     98% 0.0 mm 0 W/m2
17:57 2 °C 1.7 °C 1020.7 hPa Calm     98% 0.0 mm 0 W/m2
18:02 2 °C 1.7 °C 1020.7 hPa Calm     98% 0.0 mm 0 W/m2
18:07 2 °C 1.7 °C 1020.7 hPa Calm     98% 0.0 mm 0 W/m2
18:12 1.9 °C 1.6 °C 1020.7 hPa Calm     98% 0.0 mm 0 W/m2
18:18 1.9 °C 1.6 °C 1020.7 hPa Calm     98% 0.0 mm 0 W/m2
18:23 1.9 °C 1.6 °C 1021.0 hPa Calm     98% 0.0 mm 0 W/m2
18:28 1.9 °C 1.6 °C 1021.0 hPa Calm     98% 0.0 mm 0 W/m2
18:33 1.9 °C 1.6 °C 1020.7 hPa Calm     98% 0.0 mm 0 W/m2
18:38 1.9 °C 1.6 °C 1020.7 hPa Calm     98% 0.0 mm 0 W/m2
18:43 1.9 °C 1.6 °C 1020.7 hPa Calm     98% 0.0 mm 0 W/m2
18:48 1.9 °C 1.6 °C 1021.0 hPa Calm     98% 0.0 mm 0 W/m2
18:53 1.9 °C 1.6 °C 1020.7 hPa Calm     98% 0.0 mm 0 W/m2
18:58 1.9 °C 1.6 °C 1020.7 hPa Calm     98% 0.0 mm 0 W/m2
19:03 1.9 °C 1.6 °C 1020.7 hPa Calm     98% 0.0 mm 0 W/m2
19:08 1.9 °C 1.6 °C 1020.7 hPa Calm     98% 0.0 mm 0 W/m2
19:13 1.8 °C 1.5 °C 1020.7 hPa Calm     98% 0.0 mm 0 W/m2
19:18 1.9 °C 1.6 °C 1020.7 hPa Calm     98% 0.0 mm 0 W/m2
19:23 1.8 °C 1.5 °C 1020.7 hPa Calm     98% 0.0 mm 0 W/m2
19:28 1.8 °C 1.5 °C 1021.0 hPa Calm     98% 0.0 mm 0 W/m2
19:33 1.8 °C 1.5 °C 1020.7 hPa Calm     98% 0.0 mm 0 W/m2
19:38 1.8 °C 1.5 °C 1020.7 hPa Calm     98% 0.0 mm 0 W/m2
19:43 1.8 °C 1.5 °C 1020.7 hPa Calm     98% 0.0 mm 0 W/m2
19:48 1.8 °C 1.5 °C 1020.7 hPa Calm     98% 0.0 mm 0 W/m2
19:53 1.8 °C 1.5 °C 1020.7 hPa Calm     98% 0.0 mm 0 W/m2
19:58 1.8 °C 1.5 °C 1020.7 hPa Calm     98% 0.0 mm 0 W/m2
20:03 1.8 °C 1.5 °C 1020.7 hPa Calm     98% 0.0 mm 0 W/m2
20:08 1.8 °C 1.5 °C 1020.7 hPa Calm     98% 0.0 mm 0 W/m2
20:13 1.8 °C 1.5 °C 1020.7 hPa Calm     98% 0.0 mm 0 W/m2
20:18 1.8 °C 1.5 °C 1021.0 hPa Calm     98% 0.0 mm 0 W/m2
20:23 1.9 °C 1.6 °C 1021.0 hPa Calm     98% 0.0 mm 0 W/m2
20:28 1.9 °C 1.6 °C 1021.0 hPa Calm     98% 0.0 mm 0 W/m2
20:33 1.9 °C 1.6 °C 1021.0 hPa Calm     98% 0.0 mm 0 W/m2
20:38 1.9 °C 1.6 °C 1020.7 hPa Calm     98% 0.0 mm 0 W/m2
20:43 2 °C 1.7 °C 1020.7 hPa Calm     98% 0.0 mm 0 W/m2
20:48 2 °C 1.7 °C 1020.7 hPa Calm     98% 0.0 mm 0 W/m2
20:53 2.1 °C 1.8 °C 1020.7 hPa Calm     98% 0.0 mm 0 W/m2
20:58 2.1 °C 1.8 °C 1020.7 hPa Calm     98% 0.0 mm 0 W/m2
21:03 2.1 °C 1.8 °C 1020.7 hPa Calm     98% 0.0 mm 0 W/m2
21:08 2.1 °C 1.8 °C 1020.7 hPa Calm     98% 0.0 mm 0 W/m2
21:13 2.1 °C 1.8 °C 1020.7 hPa Calm     98% 0.0 mm 0 W/m2
21:18 2.1 °C 1.8 °C 1020.7 hPa Calm     98% 0.0 mm 0 W/m2
21:23 2.1 °C 1.8 °C 1020.7 hPa Calm     98% 0.0 mm 0 W/m2
21:28 2.1 °C 1.8 °C 1020.7 hPa Calm     98% 0.0 mm 0 W/m2
21:34 2.1 °C 1.8 °C 1020.7 hPa Calm     98% 0.0 mm 0 W/m2
21:39 2.1 °C 1.8 °C 1020.7 hPa Calm     98% 0.0 mm 0 W/m2
21:44 2.1 °C 1.8 °C 1020.7 hPa Calm     98% 0.0 mm 0 W/m2
21:49 2.1 °C 1.8 °C 1020.7 hPa Calm     98% 0.0 mm 0 W/m2
21:54 2.1 °C 1.8 °C 1020.7 hPa Calm     98% 0.0 mm 0 W/m2
21:59 2.1 °C 1.8 °C 1020.7 hPa Calm     98% 0.0 mm 0 W/m2
22:04 2.1 °C 1.8 °C 1020.7 hPa Calm     98% 0.0 mm 0 W/m2
22:09 2.1 °C 1.8 °C 1020.7 hPa Calm     98% 0.0 mm 0 W/m2
22:14 2.1 °C 1.8 °C 1020.7 hPa Calm     98% 0.0 mm 0 W/m2
22:19 2.1 °C 1.8 °C 1020.3 hPa Calm     98% 0.0 mm 0 W/m2
22:24 2.1 °C 1.8 °C 1020.3 hPa Calm     98% 0.0 mm 0 W/m2
22:29 2.1 °C 1.8 °C 1020.3 hPa Calm     98% 0.0 mm 0 W/m2
22:34 2.1 °C 1.8 °C 1020.3 hPa Calm     98% 0.0 mm 0 W/m2
22:39 2.1 °C 1.8 °C 1020.3 hPa Calm     98% 0.0 mm 0 W/m2
22:44 2.1 °C 1.8 °C 1020.3 hPa Calm     98% 0.0 mm 0 W/m2
22:49 2.1 °C 1.8 °C 1020.3 hPa Calm     98% 0.0 mm 0 W/m2
22:54 2.1 °C 1.8 °C 1020.0 hPa Calm     98% 0.0 mm 0 W/m2
22:59 2.2 °C 1.9 °C 1020.0 hPa Calm     98% 0.0 mm 0 W/m2
23:04 2.2 °C 1.9 °C 1020.0 hPa Calm     98% 0.0 mm 0 W/m2
23:09 2.2 °C 1.9 °C 1020.0 hPa Calm     98% 0.0 mm 0 W/m2
23:14 2.2 °C 1.9 °C 1020.0 hPa Calm     98% 0.0 mm 0 W/m2
23:19 2.2 °C 1.9 °C 1020.3 hPa Calm     98% 0.0 mm 0 W/m2
23:24 2.2 °C 1.9 °C 1020.0 hPa Calm     98% 0.0 mm 0 W/m2
23:30 2.2 °C 1.9 °C 1020.0 hPa Calm     98% 0.0 mm 0 W/m2
23:35 2.1 °C 1.8 °C 1020.0 hPa Calm     98% 0.0 mm 0 W/m2
23:40 2.1 °C 1.8 °C 1020.0 hPa Calm     98% 0.0 mm 0 W/m2
23:45 2.1 °C 1.8 °C 1020.0 hPa Calm     98% 0.0 mm 0 W/m2
23:50 2.1 °C 1.8 °C 1020.0 hPa Calm     98% 0.0 mm 0 W/m2
23:55 2.1 °C 1.8 °C 1019.6 hPa Calm     98% 0.0 mm 0 W/m2
Juneau County Weather
Compliments of Weather Underground - 4 mb